createdAt,value
2019-02-09T00:02:16.718Z,288.27
2019-02-09T00:04:44.344Z,283.37
2019-02-09T00:07:11.721Z,289.23
2019-02-09T00:09:39.532Z,294.13
2019-02-09T00:12:06.980Z,298.90
2019-02-09T00:14:34.590Z,293.03
2019-02-09T00:17:02.054Z,296.60
2019-02-09T00:19:29.410Z,297.87
2019-02-09T00:21:56.897Z,306.63
2019-02-09T00:24:24.431Z,307.23
2019-02-09T00:26:51.985Z,316.83
2019-02-09T00:29:19.688Z,316.33
2019-02-09T00:31:47.170Z,325.67
2019-02-09T00:34:14.626Z,335.80
2019-02-09T00:36:42.210Z,310.07
2019-02-09T00:39:09.746Z,322.30
2019-02-09T00:41:37.232Z,321.30
2019-02-09T00:44:04.836Z,293.37
2019-02-09T00:46:32.320Z,263.33
2019-02-09T00:48:59.780Z,276.87
2019-02-09T00:51:27.273Z,262.67
2019-02-09T00:53:54.742Z,259.83
2019-02-09T00:56:22.286Z,254.90
2019-02-09T00:58:49.760Z,241.07
2019-02-09T01:01:18.638Z,246.60
2019-02-09T01:03:46.161Z,240.10
2019-02-09T01:06:13.561Z,241.77
2019-02-09T01:08:40.978Z,245.93
2019-02-09T01:11:08.991Z,255.13
2019-02-09T01:13:36.502Z,269.20
2019-02-09T01:16:04.226Z,256.40
2019-02-09T01:18:31.950Z,257.00
2019-02-09T01:20:59.491Z,249.47
2019-02-09T01:23:27.129Z,271.40
2019-02-09T01:25:54.775Z,264.43
2019-02-09T01:28:23.958Z,267.83
2019-02-09T01:30:51.388Z,273.03
2019-02-09T01:33:18.954Z,255.10
2019-02-09T01:35:46.359Z,257.77
2019-02-09T01:38:15.274Z,255.83
2019-02-09T01:40:42.694Z,251.00
2019-02-09T01:43:10.138Z,250.27
2019-02-09T01:45:37.870Z,240.37
2019-02-09T01:48:05.324Z,244.90
2019-02-09T01:50:33.356Z,242.53
2019-02-09T01:53:00.926Z,254.00
2019-02-09T01:55:29.617Z,244.33
2019-02-09T01:57:57.238Z,242.93
2019-02-09T02:00:28.815Z,254.53
2019-02-09T02:02:56.641Z,254.93
2019-02-09T02:05:24.903Z,243.20
2019-02-09T02:07:52.313Z,251.97
2019-02-09T02:10:21.616Z,241.60
2019-02-09T02:12:50.257Z,245.93
2019-02-09T02:15:21.197Z,254.60
2019-02-09T02:17:48.695Z,244.70
2019-02-09T02:20:20.160Z,247.83
2019-02-09T02:22:47.585Z,241.03
2019-02-09T02:25:15.606Z,241.23
2019-02-09T02:27:43.079Z,232.10
2019-02-09T02:30:21.957Z,237.67
2019-02-09T02:32:41.478Z,235.40
2019-02-09T02:35:09.401Z,230.13
2019-02-09T02:37:36.870Z,234.67
2019-02-09T02:40:05.935Z,212.47
2019-02-09T02:42:33.349Z,226.90
2019-02-09T02:45:00.810Z,227.63
2019-02-09T02:47:28.269Z,229.00
2019-02-09T02:49:55.793Z,230.60
2019-02-09T02:52:24.556Z,233.80
2019-02-09T02:54:51.961Z,240.63
2019-02-09T02:57:19.393Z,237.37
2019-02-09T02:59:47.807Z,235.23
2019-02-09T03:02:15.638Z,225.50
2019-02-09T03:04:43.058Z,236.37
2019-02-09T03:07:10.511Z,229.13
2019-02-09T03:09:37.960Z,244.63
2019-02-09T03:12:05.361Z,228.87
2019-02-09T03:14:32.893Z,235.30
2019-02-09T03:17:00.311Z,247.20
2019-02-09T03:19:27.745Z,239.83
2019-02-09T03:21:55.217Z,258.37
2019-02-09T03:24:22.630Z,294.13
2019-02-09T03:26:50.082Z,271.17
2019-02-09T03:29:17.551Z,251.93
2019-02-09T03:31:45.020Z,239.43
2019-02-09T03:34:12.510Z,224.90
2019-02-09T03:36:40.015Z,200.33
2019-02-09T03:39:07.598Z,194.27
2019-02-09T03:41:34.958Z,214.57
2019-02-09T03:44:02.377Z,220.07
2019-02-09T03:46:29.797Z,203.60
2019-02-09T03:48:57.330Z,206.03
2019-02-09T03:51:24.816Z,213.90
2019-02-09T03:53:53.188Z,214.87
2019-02-09T03:56:20.637Z,215.30
2019-02-09T03:58:48.123Z,216.10
2019-02-09T04:01:15.657Z,206.97
2019-02-09T04:03:43.220Z,217.47
2019-02-09T04:06:10.842Z,205.53
2019-02-09T04:08:38.309Z,210.40
2019-02-09T04:11:05.825Z,210.10
2019-02-09T04:13:33.195Z,206.70
2019-02-09T04:16:00.728Z,204.10
2019-02-09T04:18:28.215Z,205.13
2019-02-09T04:20:55.567Z,216.40
2019-02-09T04:23:23.016Z,213.97
2019-02-09T04:25:50.413Z,195.43
2019-02-09T04:28:18.951Z,198.63
2019-02-09T04:30:46.472Z,201.00
2019-02-09T04:33:15.447Z,188.97
2019-02-09T04:35:42.873Z,175.87
2019-02-09T04:38:10.286Z,165.23
2019-02-09T04:40:37.872Z,163.80
2019-02-09T04:43:05.232Z,166.47
2019-02-09T04:45:32.924Z,163.97
2019-02-09T04:48:00.442Z,163.67
2019-02-09T04:50:27.920Z,162.23
2019-02-09T04:52:55.479Z,164.40
2019-02-09T04:55:26.907Z,158.93
2019-02-09T04:57:54.425Z,164.60
2019-02-09T05:00:22.747Z,164.80
2019-02-09T05:02:50.234Z,181.43
2019-02-09T05:05:17.606Z,180.23
2019-02-09T05:07:45.088Z,188.43
2019-02-09T05:10:14.189Z,177.53
2019-02-09T05:12:41.616Z,178.17
2019-02-09T05:15:10.206Z,163.13
2019-02-09T05:17:37.675Z,172.23
2019-02-09T05:20:06.704Z,163.53
2019-02-09T05:22:34.156Z,167.37
2019-02-09T05:25:01.827Z,171.80
2019-02-09T05:27:29.295Z,174.87
2019-02-09T05:29:56.749Z,191.50
2019-02-09T05:32:24.132Z,189.57
2019-02-09T05:34:51.622Z,201.20
2019-02-09T05:37:19.305Z,199.20
2019-02-09T05:39:46.758Z,204.63
2019-02-09T05:42:14.289Z,204.17
2019-02-09T05:44:41.784Z,211.20
2019-02-09T05:47:09.324Z,210.10
2019-02-09T05:49:36.800Z,207.73
2019-02-09T05:52:04.305Z,205.17
2019-02-09T05:54:31.882Z,199.43
2019-02-09T05:56:59.280Z,203.10
2019-02-09T05:59:26.810Z,207.50
2019-02-09T06:01:54.222Z,204.33
2019-02-09T06:04:21.666Z,209.47
2019-02-09T06:06:49.025Z,203.17
2019-02-09T06:09:16.487Z,203.37
2019-02-09T06:11:43.946Z,226.90
2019-02-09T06:14:11.436Z,217.93
2019-02-09T06:16:38.886Z,218.50
2019-02-09T06:19:06.406Z,225.60
2019-02-09T06:21:33.965Z,197.97
2019-02-09T06:24:01.432Z,185.50
2019-02-09T06:26:29.002Z,154.47
2019-02-09T06:28:56.409Z,137.17
2019-02-09T06:31:23.934Z,140.80
2019-02-09T06:33:53.740Z,138.20
2019-02-09T06:36:21.094Z,129.47
2019-02-09T06:38:48.581Z,122.63
2019-02-09T06:41:16.067Z,112.80
2019-02-09T06:43:43.583Z,108.17
2019-02-09T06:46:12.664Z,96.27
2019-02-09T06:48:40.162Z,101.07
2019-02-09T06:51:10.346Z,91.73
2019-02-09T06:53:37.784Z,95.90
2019-02-09T06:56:05.254Z,90.27
2019-02-09T06:58:32.699Z,93.80
2019-02-09T07:01:00.259Z,105.77
2019-02-09T07:03:27.973Z,124.43
2019-02-09T07:05:55.470Z,117.47
2019-02-09T07:08:23.437Z,118.03
2019-02-09T07:10:50.907Z,114.87
2019-02-09T07:13:18.391Z,115.90
2019-02-09T07:15:45.993Z,115.43
2019-02-09T07:18:13.416Z,120.63
2019-02-09T07:20:41.023Z,113.27
2019-02-09T07:23:08.445Z,118.57
2019-02-09T07:25:36.173Z,122.23
2019-02-09T07:28:04.194Z,116.00
2019-02-09T07:30:32.269Z,119.10
2019-02-09T07:32:59.800Z,116.20
2019-02-09T07:35:27.302Z,109.73
2019-02-09T07:37:55.824Z,119.80
2019-02-09T07:40:25.123Z,117.17
2019-02-09T07:42:52.659Z,114.13
2019-02-09T07:45:21.069Z,114.37
2019-02-09T07:47:50.164Z,119.07
2019-02-09T07:50:18.513Z,126.10
2019-02-09T07:52:46.050Z,139.33
2019-02-09T07:55:17.141Z,135.97
2019-02-09T07:57:47.260Z,133.07
2019-02-09T08:00:32.581Z,112.93
2019-02-09T08:03:00.418Z,114.77
2019-02-09T08:05:29.695Z,102.13
2019-02-09T08:07:57.763Z,95.17
2019-02-09T08:10:27.162Z,98.33
2019-02-09T08:12:54.732Z,82.70
2019-02-09T08:15:23.325Z,77.13
2019-02-09T08:17:50.878Z,79.13
2019-02-09T08:20:19.583Z,70.27
2019-02-09T08:22:47.104Z,75.43
2019-02-09T08:25:16.117Z,68.47
2019-02-09T08:27:43.510Z,71.97
2019-02-09T08:30:20.121Z,75.67
2019-02-09T08:32:47.677Z,75.83
2019-02-09T08:35:15.136Z,79.93
2019-02-09T08:37:42.639Z,77.93
2019-02-09T08:40:11.281Z,84.80
2019-02-09T08:42:39.939Z,85.13
2019-02-09T08:45:11.785Z,90.43
2019-02-09T08:47:39.305Z,115.17
2019-02-09T08:50:08.339Z,121.43
2019-02-09T08:52:35.883Z,126.80
2019-02-09T08:55:05.971Z,122.57
2019-02-09T08:57:33.475Z,110.00
2019-02-09T09:00:01.021Z,101.37
2019-02-09T09:02:28.591Z,98.83
2019-02-09T09:04:56.079Z,98.40
2019-02-09T09:07:24.533Z,82.43
2019-02-09T09:09:52.130Z,78.20
2019-02-09T09:12:19.643Z,73.90
2019-02-09T09:14:47.089Z,75.43
2019-02-09T09:17:14.659Z,69.63
2019-02-09T09:19:42.124Z,65.47
2019-02-09T09:22:09.630Z,64.73
2019-02-09T09:24:37.069Z,65.63
2019-02-09T09:27:04.572Z,65.60
2019-02-09T09:29:35.461Z,61.10
2019-02-09T09:32:02.880Z,58.07
2019-02-09T09:34:30.395Z,54.93
2019-02-09T09:36:57.952Z,54.33
2019-02-09T09:39:25.444Z,53.20
2019-02-09T09:41:54.517Z,53.03
2019-02-09T09:44:21.950Z,53.03
2019-02-09T09:46:50.497Z,50.67
2019-02-09T09:49:17.900Z,46.83
2019-02-09T09:51:45.442Z,62.00
2019-02-09T09:54:16.084Z,68.37
2019-02-09T09:56:43.529Z,58.90
2019-02-09T09:59:10.985Z,51.70
2019-02-09T10:01:38.534Z,51.47
2019-02-09T10:13:19.829Z,41.63
2019-02-09T10:15:47.333Z,47.07
2019-02-09T10:23:45.334Z,44.43
2019-02-09T10:35:32.920Z,52.63
2019-02-09T10:40:47.006Z,59.60
2019-02-09T10:43:24.866Z,58.97
2019-02-09T11:07:39.004Z,65.47
2019-02-09T11:13:20.180Z,58.07
2019-02-09T11:49:09.498Z,66.33
2019-02-09T11:51:53.298Z,62.83
2019-02-09T11:54:24.427Z,65.73
2019-02-09T11:56:56.614Z,67.40
2019-02-09T11:59:30.251Z,62.17
2019-02-09T12:02:01.443Z,63.43
2019-02-09T12:05:00.705Z,61.73
2019-02-09T12:13:40.447Z,64.97
2019-02-09T12:22:30.580Z,40.93
2019-02-09T12:25:10.324Z,44.90
2019-02-09T12:27:43.199Z,42.27
2019-02-09T12:30:16.382Z,37.73
2019-02-09T12:33:04.729Z,39.30
2019-02-09T12:51:04.853Z,30.57
2019-02-09T12:53:43.697Z,32.30
2019-02-09T12:56:13.915Z,32.87
2019-02-09T12:58:45.944Z,28.20
2019-02-09T13:01:14.666Z,29.67
2019-02-09T13:03:42.606Z,28.60
2019-02-09T13:09:09.485Z,24.90
2019-02-09T13:11:45.475Z,28.43
2019-02-09T13:20:28.989Z,29.73
2019-02-09T13:22:57.187Z,27.63
2019-02-09T13:25:29.766Z,28.33
2019-02-09T13:27:58.881Z,28.33
2019-02-09T13:42:41.661Z,27.57
2019-02-09T13:45:19.664Z,29.70
2019-02-09T13:47:52.407Z,25.63
2019-02-09T13:50:28.303Z,24.17
2019-02-09T13:53:08.862Z,22.23
2019-02-09T13:55:52.633Z,23.93
2019-02-09T13:59:34.695Z,28.47
2019-02-09T16:31:39.354Z,47.83
2019-02-09T16:34:06.814Z,49.40
2019-02-09T16:36:34.276Z,48.43
2019-02-09T16:39:01.722Z,47.37
2019-02-09T16:41:29.300Z,55.43
2019-02-09T16:43:56.782Z,53.90
2019-02-09T16:46:24.328Z,54.43
2019-02-09T16:48:51.851Z,61.17
2019-02-09T16:51:22.488Z,53.27
2019-02-09T16:53:51.472Z,51.47
2019-02-09T16:56:18.978Z,53.50
2019-02-09T16:58:46.392Z,58.37
2019-02-09T17:01:16.805Z,69.03
2019-02-09T17:03:44.381Z,67.40
2019-02-09T17:06:12.104Z,67.43
2019-02-09T17:08:39.722Z,63.17
2019-02-09T17:11:07.225Z,64.00
2019-02-09T17:13:34.813Z,58.00
2019-02-09T17:16:02.297Z,63.30
2019-02-09T17:18:29.816Z,56.57
2019-02-09T17:20:58.945Z,54.47
2019-02-09T17:23:26.449Z,54.07
2019-02-09T17:25:53.835Z,52.60
2019-02-09T17:28:21.187Z,56.20
2019-02-09T17:30:48.777Z,55.10
2019-02-09T17:33:16.084Z,53.43
2019-02-09T17:35:43.499Z,52.13
2019-02-09T17:38:10.919Z,59.13
2019-02-09T17:40:39.731Z,58.33
2019-02-09T17:43:07.698Z,54.70
2019-02-09T17:45:39.713Z,62.00
2019-02-09T17:48:07.120Z,63.73
2019-02-09T17:50:34.571Z,71.87
2019-02-09T17:53:01.983Z,66.53
2019-02-09T17:55:29.913Z,69.83
2019-02-09T17:58:00.790Z,69.57
2019-02-09T18:00:32.912Z,67.30
2019-02-09T18:03:00.893Z,63.83
2019-02-09T18:05:28.411Z,63.00
2019-02-09T18:07:55.973Z,63.57
2019-02-09T18:10:23.425Z,60.17
2019-02-09T18:12:50.899Z,59.00
2019-02-09T18:15:19.159Z,60.33
2019-02-09T18:17:49.342Z,60.00
2019-02-09T18:20:17.146Z,62.17
2019-02-09T18:22:44.881Z,73.93
2019-02-09T18:25:14.869Z,68.60
2019-02-09T18:27:43.208Z,68.73
2019-02-09T18:30:26.334Z,71.00
2019-02-09T18:32:56.587Z,78.73
2019-02-09T18:35:26.426Z,70.37
2019-02-09T18:37:55.791Z,70.47
2019-02-09T18:40:24.769Z,74.80
2019-02-09T18:42:52.170Z,75.13
2019-02-09T18:45:21.471Z,64.07
2019-02-09T18:47:48.866Z,69.50
2019-02-09T18:50:22.993Z,69.10
2019-02-09T18:52:50.495Z,70.70
2019-02-09T18:55:19.009Z,64.40
2019-02-09T18:57:46.499Z,62.30
2019-02-09T19:00:21.649Z,64.73
2019-02-09T19:02:49.535Z,62.27
2019-02-09T19:05:16.930Z,58.20
2019-02-09T19:07:44.455Z,65.07
2019-02-09T19:10:19.299Z,61.60
2019-02-09T19:12:46.666Z,68.03
2019-02-09T19:15:15.321Z,61.23
2019-02-09T19:17:43.161Z,64.10
2019-02-09T19:20:16.413Z,68.73
2019-02-09T19:22:45.573Z,61.70
2019-02-09T19:25:17.483Z,65.87
2019-02-09T19:27:45.054Z,61.80
2019-02-09T19:30:16.928Z,71.33
2019-02-09T19:32:44.434Z,66.13
2019-02-09T19:35:13.767Z,68.03
2019-02-09T19:37:40.833Z,63.77
2019-02-09T19:40:15.101Z,71.03
2019-02-09T19:42:44.167Z,72.90
2019-02-09T19:45:13.169Z,76.47
2019-02-09T19:47:40.623Z,71.20
2019-02-09T19:50:09.609Z,75.10
2019-02-09T19:52:37.039Z,68.57
2019-02-09T19:55:06.168Z,71.23
2019-02-09T19:57:34.257Z,74.20
2019-02-09T20:00:01.719Z,72.80
2019-02-09T20:02:30.763Z,75.27
2019-02-09T20:04:58.252Z,86.63
2019-02-09T20:07:27.297Z,81.67
2019-02-09T20:09:54.919Z,82.17
2019-02-09T20:12:22.401Z,75.93
2019-02-09T20:14:51.454Z,79.87
2019-02-09T20:17:18.901Z,83.73
2019-02-09T20:19:46.429Z,72.67
2019-02-09T20:22:13.915Z,83.27
2019-02-09T20:24:42.419Z,74.43
2019-02-09T20:27:09.961Z,85.07
2019-02-09T20:29:37.446Z,83.33
2019-02-09T20:32:04.960Z,88.77
2019-02-09T20:34:32.522Z,87.97
2019-02-09T20:37:00.535Z,87.73
2019-02-09T20:39:28.103Z,89.67
2019-02-09T20:41:59.790Z,95.60
2019-02-09T20:44:27.279Z,106.87
2019-02-09T20:46:55.122Z,103.33
2019-02-09T20:49:24.188Z,81.33
2019-02-09T20:51:51.742Z,95.60
2019-02-09T20:54:20.519Z,78.77
2019-02-09T20:56:48.130Z,82.53
2019-02-09T20:59:17.276Z,80.80
2019-02-09T21:01:44.894Z,66.87
2019-02-09T21:04:12.454Z,72.23
2019-02-09T21:06:41.553Z,87.37
2019-02-09T21:09:09.106Z,79.30
2019-02-09T21:11:36.812Z,82.20
2019-02-09T21:14:04.220Z,78.47
2019-02-09T21:16:31.678Z,84.03
2019-02-09T21:19:00.828Z,93.80
2019-02-09T21:21:28.382Z,84.80
2019-02-09T21:23:55.924Z,88.03
2019-02-09T21:26:23.500Z,74.83
2019-02-09T21:28:51.046Z,78.30
2019-02-09T21:31:18.898Z,95.57
2019-02-09T21:33:46.330Z,97.13
2019-02-09T21:36:13.825Z,93.07
2019-02-09T21:38:41.670Z,89.20
2019-02-09T21:41:09.104Z,88.03
2019-02-09T21:43:37.763Z,95.07
2019-02-09T21:46:06.176Z,97.47
2019-02-09T21:48:34.870Z,91.47
2019-02-09T21:51:02.829Z,69.23
2019-02-09T21:53:30.386Z,61.37
2019-02-09T21:55:57.849Z,64.57
2019-02-09T21:58:25.738Z,62.90
2019-02-09T22:00:53.270Z,67.37
2019-02-09T22:03:22.361Z,64.80
2019-02-09T22:05:52.913Z,57.70
2019-02-09T22:08:20.417Z,58.47
2019-02-09T22:10:47.943Z,58.23
2019-02-09T22:13:15.841Z,53.80
2019-02-09T22:15:43.534Z,60.70
2019-02-09T22:18:11.027Z,60.77
2019-02-09T22:20:39.030Z,55.63
2019-02-09T22:23:06.528Z,60.10
2019-02-09T22:25:33.980Z,58.67
2019-02-09T22:28:02.880Z,54.60
2019-02-09T22:30:30.813Z,58.87
2019-02-09T22:32:58.478Z,58.00
2019-02-09T22:35:26.635Z,55.37
2019-02-09T22:37:54.248Z,56.83
2019-02-09T22:40:26.312Z,54.73
2019-02-09T22:42:53.814Z,55.37
2019-02-09T22:45:22.122Z,50.63
2019-02-09T22:47:51.226Z,50.27
2019-02-09T22:50:20.421Z,54.33
2019-02-09T22:52:48.002Z,53.07
2019-02-09T22:55:17.206Z,48.57
2019-02-09T22:57:44.710Z,45.07
2019-02-09T23:00:13.754Z,52.63
2019-02-09T23:02:41.242Z,56.00
2019-02-09T23:05:13.352Z,50.00
2019-02-09T23:07:42.146Z,54.70
2019-02-09T23:10:09.936Z,51.50
2019-02-09T23:12:37.430Z,47.80
2019-02-09T23:15:07.670Z,50.57
2019-02-09T23:17:35.078Z,46.77
2019-02-09T23:20:02.657Z,46.20
2019-02-09T23:22:30.188Z,49.77
2019-02-09T23:24:57.713Z,48.93
2019-02-09T23:27:26.517Z,49.17
2019-02-09T23:29:53.928Z,51.70
2019-02-09T23:32:21.472Z,50.77
2019-02-09T23:34:49.223Z,54.83
2019-02-09T23:37:16.667Z,47.17
2019-02-09T23:39:44.200Z,56.20
2019-02-09T23:42:11.704Z,51.83
2019-02-09T23:44:44.781Z,53.07
2019-02-09T23:47:12.375Z,57.50
2019-02-09T23:49:40.023Z,50.20
2019-02-09T23:52:09.092Z,53.53
2019-02-09T23:54:36.592Z,50.90
2019-02-09T23:57:04.219Z,47.93
2019-02-09T23:59:31.768Z,45.27
